Skip Navigation LinksHome page > Weather > Current weather Skip Navigation Links

Current Weather

San Francisco International, San Francisco

For information only: do not use for flight planning or navigation.
Latest weather
Observation time Sunday, May 29, 2016 9:56 AM PDT
Local time Sunday, May 29, 2016 10:12 AM PDT
Flight conditions Visual Meteorological Conditions
Winds
Wind direction East-Northeast (60°)
Wind speed 5 mph
Visibility 10 mi.
Sky condition
Ceiling unlimited
Cloud layer few clouds 20,000 ft.
Temperature 65°F
Dewpoint 50°F
Altimeter 29.99 in.Hg
Derived measurements
Relative humidity 58%
Density altitude 497 ft.
Sea-level pressure 29.99 in.Hg
Remarks
System requires maintenance.
Automated weather observing station with precipitation discriminator.
METAR KSFO 291656Z 06004KT 10SM FEW200 18/10 A2999 RMK AO2 SLP155 T01830100 $

Settings

Location code

InnerDrive.Weather 4.0.5722.1 Release CLR 4.0.30319.34209
Copyright ©2015 Inner Drive Technology. All rights reserved. Portions Copyright ©1986-2015 David Braverman.

Find weather

Site navigation


Skip Navigation Links

Place info

Page info

PayPal - The safer, easier way to pay online!

Return home.

Copyright ©2016 Inner Drive Technology. Purveyors of fine, hand-crafted computer software. Page printed 2016-05-29T17:12:52 UTC.